createdAt,value
2022-11-18T21:23:41.254Z,93.66
2022-11-18T21:24:40.824Z,94.22
2022-11-18T21:25:41.688Z,94.13
2022-11-18T21:26:40.808Z,94.22
2022-11-18T21:27:41.065Z,94.32
2022-11-18T21:28:41.062Z,93.94
2022-11-18T21:29:40.830Z,94.32
2022-11-18T21:30:40.809Z,93.94
2022-11-18T21:31:41.080Z,94.41
2022-11-18T21:32:40.833Z,94.51
2022-11-18T21:33:41.108Z,94.89
2022-11-18T21:34:41.078Z,94.98
2022-11-18T21:35:40.821Z,95.07
2022-11-18T21:36:50.298Z,94.79
2022-11-18T21:37:40.823Z,94.79
2022-11-18T21:38:41.283Z,95.26
2022-11-18T21:39:41.126Z,94.89
2022-11-18T21:40:40.814Z,95.07
2022-11-18T21:41:40.845Z,95.83
2022-11-18T21:42:40.812Z,96.2
2022-11-18T21:44:10.806Z,95.83
2022-11-18T21:44:40.825Z,96.01
2022-11-18T21:45:41.489Z,96.3
2022-11-18T21:46:40.990Z,96.3
2022-11-18T21:47:40.839Z,95.92
2022-11-18T21:48:40.875Z,96.3
2022-11-18T21:49:41.136Z,96.2
2022-11-18T21:50:40.824Z,96.68
2022-11-18T21:51:41.093Z,95.92
2022-11-18T21:52:40.831Z,96.2
2022-11-18T21:53:41.102Z,96.01
2022-11-18T21:54:41.087Z,95.92
2022-11-18T21:55:41.259Z,95.73
2022-11-18T21:56:41.089Z,96.2
2022-11-18T21:57:41.105Z,95.83
2022-11-18T21:58:40.837Z,96.11
2022-11-18T21:59:40.845Z,95.92
2022-11-18T22:00:40.894Z,96.3
2022-11-18T22:01:40.845Z,96.77
2022-11-18T22:02:40.847Z,96.2
2022-11-18T22:03:40.848Z,96.3
2022-11-18T22:04:40.902Z,96.58
2022-11-18T22:05:40.845Z,96.58
2022-11-18T22:06:41.094Z,96.49
2022-11-18T22:07:41.239Z,96.3
2022-11-18T22:08:41.084Z,96.58
2022-11-18T22:09:40.826Z,97.15
2022-11-18T22:10:40.839Z,96.77
2022-11-18T22:11:41.146Z,97.05
2022-11-18T22:12:40.848Z,97.15
2022-11-18T22:13:41.093Z,96.96
2022-11-18T22:14:40.860Z,97.15
2022-11-18T22:15:41.090Z,97.15
2022-11-18T22:16:40.846Z,97.24
2022-11-18T22:17:40.839Z,97.15
2022-11-18T22:18:40.840Z,97.53
2022-11-18T22:19:41.103Z,97.62
2022-11-18T22:20:41.819Z,97.53
2022-11-18T22:21:40.931Z,97.43
2022-11-18T22:22:40.844Z,97.15
2022-11-18T22:23:40.844Z,97.15
2022-11-18T22:24:41.122Z,97.15
2022-11-18T22:25:41.108Z,97.15
2022-11-18T22:26:41.118Z,96.77
2022-11-18T22:27:41.157Z,97.05
2022-11-18T22:28:40.866Z,97.05
2022-11-18T22:29:41.107Z,97.05
2022-11-18T22:30:40.863Z,97.05
2022-11-18T22:31:40.869Z,97.15
2022-11-18T22:32:40.851Z,96.77
2022-11-18T22:33:41.344Z,96.2
2022-11-18T22:34:41.114Z,96.58
2022-11-18T22:35:40.848Z,96.3
2022-11-18T22:36:41.217Z,96.11
2022-11-18T22:37:40.868Z,96.3
2022-11-18T22:38:41.115Z,95.92
2022-11-18T22:39:40.852Z,95.92
2022-11-18T22:40:40.861Z,96.11
2022-11-18T22:41:40.859Z,96.86
2022-11-18T22:42:40.863Z,96.68
2022-11-18T22:43:41.195Z,96.58
2022-11-18T22:44:41.109Z,96.3
2022-11-18T22:45:40.860Z,95.92
2022-11-18T22:46:41.133Z,95.92
2022-11-18T22:47:40.855Z,96.01
2022-11-18T22:48:41.135Z,96.3
2022-11-18T22:49:41.064Z,96.68
2022-11-18T22:50:40.850Z,96.2
2022-11-18T22:51:41.118Z,96.3
2022-11-18T22:52:41.121Z,96.3
2022-11-18T22:53:40.938Z,96.11
2022-11-18T22:54:42.445Z,96.11
2022-11-18T22:55:40.879Z,96.58
2022-11-18T22:56:40.858Z,96.2
2022-11-18T22:57:40.851Z,96.49
2022-11-18T22:58:40.865Z,96.58
2022-11-18T22:59:41.171Z,96.11
2022-11-18T23:00:40.867Z,96.11
2022-11-18T23:01:40.869Z,96.39
2022-11-18T23:02:41.120Z,96.3
2022-11-18T23:03:41.119Z,96.3
2022-11-18T23:04:40.894Z,96.3
2022-11-18T23:05:41.320Z,96.3
2022-11-18T23:06:40.906Z,96.3
2022-11-18T23:07:41.428Z,96.77
2022-11-18T23:08:41.031Z,96.3
2022-11-18T23:09:40.912Z,96.58
2022-11-18T23:10:41.540Z,96.58
2022-11-18T23:11:40.899Z,96.3
2022-11-18T23:12:47.657Z,95.92
2022-11-18T23:13:40.876Z,96.3
2022-11-18T23:14:41.126Z,96.2
2022-11-18T23:15:41.187Z,96.53
2022-11-18T23:16:40.878Z,96.15
2022-11-18T23:17:41.124Z,96.72
2022-11-18T23:18:40.884Z,95.97
2022-11-18T23:19:40.877Z,95.87
2022-11-18T23:20:41.126Z,96.3
2022-11-18T23:21:40.872Z,95.78
2022-11-18T23:22:41.739Z,96.34
2022-11-18T23:23:40.965Z,96.06
2022-11-18T23:24:40.884Z,96.15
2022-11-18T23:25:41.124Z,96.25
2022-11-18T23:26:40.888Z,95.78
2022-11-18T23:27:40.894Z,96.25
2022-11-18T23:28:40.886Z,96.34
2022-11-18T23:29:40.909Z,96.15
2022-11-18T23:30:41.074Z,96.34
2022-11-18T23:31:41.187Z,96.63
2022-11-18T23:32:41.350Z,96.91
2022-11-18T23:33:40.869Z,96.91
2022-11-18T23:34:40.886Z,96.44
2022-11-18T23:35:40.880Z,96.53
2022-11-18T23:36:40.884Z,96.25
2022-11-18T23:37:41.151Z,96.63
2022-11-18T23:38:40.894Z,97
2022-11-18T23:39:40.887Z,96.72
2022-11-18T23:40:41.123Z,97.19
2022-11-18T23:41:41.151Z,97.1
2022-11-18T23:42:40.884Z,97.48
2022-11-18T23:43:41.149Z,97.48
2022-11-18T23:44:40.881Z,97.67
2022-11-18T23:45:41.171Z,97.67
2022-11-18T23:46:40.882Z,97.85
2022-11-18T23:47:41.194Z,98.14
2022-11-18T23:48:41.115Z,98.33
2022-11-18T23:49:40.903Z,97.95
